createdAt,value
2024-04-25T00:03:25.940Z,33.87
2024-04-25T00:08:28.794Z,52.23
2024-04-25T00:13:31.827Z,48.73
2024-04-25T00:18:34.856Z,43.27
2024-04-25T00:23:37.808Z,44.77
2024-04-25T00:28:40.987Z,48.27
2024-04-25T00:33:44.113Z,52.00
2024-04-25T00:38:47.093Z,34.63
2024-04-25T00:43:52.678Z,59.53
2024-04-25T00:48:57.505Z,54.43
2024-04-25T00:54:00.454Z,53.60
2024-04-25T00:59:03.910Z,55.70
2024-04-25T01:04:07.499Z,36.00
2024-04-25T01:09:10.437Z,69.97
2024-04-25T01:14:13.416Z,60.63
2024-04-25T01:19:16.348Z,48.10
2024-04-25T01:24:29.276Z,69.00
2024-04-25T01:29:32.618Z,50.50
2024-04-25T01:34:35.569Z,47.77
2024-04-25T01:39:38.355Z,41.27
2024-04-25T01:44:41.235Z,47.40
2024-04-25T01:49:44.091Z,28.03
2024-04-25T01:54:47.016Z,50.83
2024-04-25T01:59:49.961Z,36.63
2024-04-25T02:04:52.803Z,45.27
2024-04-25T02:09:55.670Z,40.20
2024-04-25T02:14:58.712Z,50.10
2024-04-25T02:20:01.763Z,44.33
2024-04-25T02:25:07.778Z,49.37
2024-04-25T02:30:10.707Z,47.27
2024-04-25T02:35:13.668Z,52.00
2024-04-25T02:40:16.588Z,39.63
2024-04-25T02:45:19.441Z,50.73
2024-04-25T02:50:22.378Z,48.93
2024-04-25T02:55:25.237Z,43.83
2024-04-25T03:00:28.077Z,45.33
2024-04-25T03:05:31.064Z,45.70
2024-04-25T03:10:33.975Z,43.17
2024-04-25T03:15:36.939Z,39.20
2024-04-25T03:20:39.979Z,44.47
2024-04-25T03:25:42.892Z,35.23
2024-04-25T03:30:46.110Z,29.77
2024-04-25T03:35:48.983Z,38.93
2024-04-25T03:40:51.880Z,38.23
2024-04-25T03:45:54.908Z,44.27
2024-04-25T03:50:57.857Z,41.27
2024-04-25T03:56:00.687Z,44.97
2024-04-25T04:01:03.648Z,38.47
2024-04-25T04:06:06.649Z,37.00
2024-04-25T04:11:09.638Z,44.63
2024-04-25T04:16:12.854Z,35.53
2024-04-25T04:21:15.913Z,28.37
2024-04-25T04:26:18.771Z,40.37
2024-04-25T04:31:22.287Z,32.13
2024-04-25T04:36:25.201Z,40.27
2024-04-25T04:41:28.166Z,34.53
2024-04-25T04:46:31.115Z,45.23
2024-04-25T04:51:38.475Z,34.30
2024-04-25T04:56:42.185Z,41.63
2024-04-25T05:01:45.042Z,43.73
2024-04-25T05:06:47.942Z,45.13
2024-04-25T05:11:50.914Z,41.93
2024-04-25T05:16:54.345Z,43.20
2024-04-25T05:22:00.128Z,49.13
2024-04-25T05:27:03.138Z,51.73
2024-04-25T05:32:06.018Z,50.60
2024-04-25T05:37:08.823Z,46.57
2024-04-25T05:42:13.021Z,50.70
2024-04-25T05:47:17.510Z,53.37
2024-04-25T05:52:20.831Z,40.17
2024-04-25T05:57:23.664Z,46.30
2024-04-25T06:02:26.968Z,43.17
2024-04-25T06:07:29.754Z,37.07
2024-04-25T06:12:32.853Z,36.50
2024-04-25T06:17:36.245Z,33.17
2024-04-25T06:22:39.789Z,39.77
2024-04-25T06:27:43.632Z,38.23
2024-04-25T06:32:46.342Z,41.23
2024-04-25T06:37:48.977Z,27.83
2024-04-25T06:42:51.507Z,31.63
2024-04-25T06:47:54.052Z,24.80
2024-04-25T06:52:56.797Z,25.90
2024-04-25T06:58:00.885Z,28.80
2024-04-25T07:03:03.493Z,26.03
2024-04-25T07:08:06.903Z,29.20
2024-04-25T07:24:16.532Z,24.93
2024-04-25T07:29:19.692Z,27.70
2024-04-25T07:34:22.668Z,23.30
2024-04-25T07:39:25.145Z,19.20
2024-04-25T07:44:27.693Z,20.57
2024-04-25T07:49:32.627Z,21.03
2024-04-25T07:54:35.168Z,21.17
2024-04-25T07:59:38.003Z,19.93
2024-04-25T08:04:40.731Z,17.53
2024-04-25T08:09:43.313Z,22.63
2024-04-25T08:14:47.311Z,22.13
2024-04-25T08:19:54.051Z,21.57
2024-04-25T08:24:56.504Z,22.07
2024-04-25T08:29:59.526Z,21.37
2024-04-25T08:35:02.164Z,18.77
2024-04-25T08:40:05.165Z,23.53
2024-04-25T08:45:09.992Z,17.13
2024-04-25T08:50:15.272Z,20.30
2024-04-25T08:55:20.106Z,20.17
2024-04-25T09:00:22.718Z,16.13
2024-04-25T09:05:26.258Z,15.13
2024-04-25T09:10:44.522Z,16.13
2024-04-25T09:15:46.996Z,16.80
2024-04-25T09:20:49.733Z,17.03
2024-04-25T09:25:52.529Z,14.90
2024-04-25T09:30:55.788Z,12.43
2024-04-25T09:35:58.811Z,13.33
2024-04-25T09:41:02.843Z,8.50
2024-04-25T09:46:10.812Z,10.70
2024-04-25T09:51:30.000Z,12.63
2024-04-25T09:56:36.112Z,12.40
2024-04-25T10:01:39.469Z,11.43
2024-04-25T10:06:42.554Z,11.80
2024-04-25T10:11:48.892Z,10.10
2024-04-25T10:16:52.306Z,11.30
2024-04-25T10:21:54.898Z,9.73
2024-04-25T10:26:57.482Z,9.47
2024-04-25T10:32:00.070Z,13.03
2024-04-25T10:37:02.560Z,11.97
2024-04-25T10:42:14.275Z,9.93
2024-04-25T10:47:18.541Z,10.47
2024-04-25T10:52:21.273Z,12.13
2024-04-25T10:57:23.815Z,11.83
2024-04-25T11:02:35.189Z,12.70
2024-04-25T11:07:39.029Z,11.77
2024-04-25T11:12:41.775Z,11.63
2024-04-25T11:17:56.163Z,7.23
2024-04-25T11:23:15.538Z,9.37
2024-04-25T11:28:18.217Z,6.73
2024-04-25T11:33:27.656Z,8.43
2024-04-25T11:38:31.989Z,8.37
2024-04-25T11:43:34.593Z,7.60
2024-04-25T11:48:50.910Z,6.93
2024-04-25T11:53:53.608Z,9.43
2024-04-25T11:58:56.205Z,8.33
2024-04-25T12:03:58.755Z,7.70
2024-04-25T12:09:01.343Z,7.10
2024-04-25T12:14:04.616Z,7.03
2024-04-25T12:19:07.250Z,8.63
2024-04-25T12:24:09.750Z,7.53
2024-04-25T12:29:12.398Z,6.97
2024-04-25T12:34:15.142Z,6.77
2024-04-25T12:39:20.399Z,5.60
2024-04-25T12:44:24.611Z,7.97
2024-04-25T12:49:37.783Z,8.60
2024-04-25T12:54:40.513Z,4.97
2024-04-25T12:59:43.057Z,5.97
2024-04-25T13:04:45.665Z,5.33
2024-04-25T13:09:48.244Z,5.27
2024-04-25T13:14:50.946Z,4.87
2024-04-25T13:19:53.723Z,5.73
2024-04-25T13:24:56.782Z,4.57
2024-04-25T13:29:59.457Z,7.00
2024-04-25T13:35:02.051Z,5.47
2024-04-25T13:40:05.306Z,5.80
2024-04-25T13:45:08.517Z,7.17
2024-04-25T13:50:11.114Z,4.97
2024-04-25T13:55:14.104Z,6.00
2024-04-25T14:00:17.009Z,5.60
2024-04-25T14:05:19.621Z,12.87
2024-04-25T14:10:22.910Z,6.30
2024-04-25T14:15:25.928Z,3.93
2024-04-25T14:20:28.927Z,3.90
2024-04-25T14:25:50.321Z,4.10
2024-04-25T14:30:52.903Z,3.27
2024-04-25T14:35:55.413Z,4.53
2024-04-25T14:41:04.013Z,2.73
2024-04-25T14:46:08.974Z,3.00
2024-04-25T14:51:11.529Z,3.43
2024-04-25T14:56:14.234Z,4.90
2024-04-25T15:01:20.540Z,3.57
2024-04-25T15:06:23.261Z,2.33
2024-04-25T15:11:26.771Z,10.83
2024-04-25T15:16:29.478Z,2.87
2024-04-25T15:21:31.998Z,2.10
2024-04-25T15:26:34.561Z,11.87
2024-04-25T15:31:37.103Z,2.97
2024-04-25T15:36:39.625Z,2.53
2024-04-25T15:41:42.195Z,5.07
2024-04-25T15:46:44.760Z,2.20
2024-04-25T15:51:47.470Z,3.07
2024-04-25T15:56:50.967Z,32.13
2024-04-25T16:01:53.685Z,19.57
2024-04-25T16:06:56.426Z,10.33
2024-04-25T16:11:59.062Z,26.17
2024-04-25T16:17:01.574Z,10.70
2024-04-25T16:22:04.160Z,6.97
2024-04-25T16:27:07.729Z,9.97
2024-04-25T16:32:10.391Z,3.53
2024-04-25T16:37:12.855Z,7.67
2024-04-25T16:42:16.675Z,2.40
2024-04-25T16:47:19.224Z,6.00
2024-04-25T16:52:21.941Z,3.17
2024-04-25T16:57:24.457Z,2.27
2024-04-25T17:02:27.091Z,3.80
2024-04-25T17:07:31.257Z,3.43
2024-04-25T17:12:33.916Z,4.23
2024-04-25T17:17:36.515Z,2.03
2024-04-25T17:22:39.064Z,5.17
2024-04-25T17:27:42.900Z,3.03
2024-04-25T17:32:45.653Z,4.93
2024-04-25T17:37:48.323Z,3.50
2024-04-25T17:42:50.917Z,5.77
2024-04-25T17:47:54.694Z,3.47
2024-04-25T17:52:57.393Z,6.73
2024-04-25T17:58:02.254Z,7.17
2024-04-25T18:03:08.409Z,6.00
2024-04-25T18:08:12.215Z,5.90
2024-04-25T18:13:14.811Z,9.17
2024-04-25T18:18:21.456Z,11.80
2024-04-25T18:23:24.227Z,16.77
2024-04-25T18:28:26.725Z,5.70
2024-04-25T18:33:29.343Z,2.80
2024-04-25T18:38:32.063Z,9.97
2024-04-25T18:43:34.690Z,5.27
2024-04-25T18:48:40.026Z,3.90
2024-04-25T18:53:42.895Z,15.97
2024-04-25T18:58:45.487Z,22.53
2024-04-25T19:03:48.089Z,18.17
2024-04-25T19:08:53.190Z,25.90
2024-04-25T19:13:57.811Z,18.53
2024-04-25T19:19:01.066Z,19.07
2024-04-25T19:24:05.977Z,19.53
2024-04-25T19:29:10.000Z,22.57
2024-04-25T19:34:18.737Z,23.67
2024-04-25T19:39:24.174Z,21.70
2024-04-25T19:44:26.594Z,18.80
2024-04-25T19:49:29.588Z,20.73
2024-04-25T19:54:32.699Z,19.53
2024-04-25T19:59:37.037Z,19.50
2024-04-25T20:04:39.698Z,10.63
2024-04-25T20:09:43.374Z,10.93
2024-04-25T20:14:46.574Z,8.67
2024-04-25T20:20:07.684Z,13.27
2024-04-25T20:25:10.356Z,11.63
2024-04-25T20:30:12.942Z,11.87
2024-04-25T20:35:15.570Z,15.67
2024-04-25T20:40:18.122Z,16.33
2024-04-25T20:45:20.651Z,13.93
2024-04-25T20:50:23.232Z,19.03
2024-04-25T20:55:25.870Z,10.50
2024-04-25T21:00:28.588Z,10.73
2024-04-25T21:05:31.188Z,13.60
2024-04-25T21:10:33.811Z,15.03
2024-04-25T21:15:36.317Z,8.10
2024-04-25T21:20:39.032Z,15.07
2024-04-25T21:25:48.272Z,21.87
2024-04-25T21:30:56.696Z,19.90
2024-04-25T21:35:59.211Z,19.13
2024-04-25T21:41:01.855Z,18.70
2024-04-25T21:46:07.435Z,22.60
2024-04-25T21:51:10.015Z,18.97
2024-04-25T21:56:12.572Z,19.87
2024-04-25T22:01:15.216Z,14.77
2024-04-25T22:06:19.015Z,17.83
2024-04-25T22:11:21.853Z,24.53
2024-04-25T22:16:24.500Z,21.47
2024-04-25T22:21:27.832Z,29.00
2024-04-25T22:26:30.472Z,25.53
2024-04-25T22:31:33.253Z,29.27
2024-04-25T22:36:35.831Z,28.33
2024-04-25T22:41:38.378Z,34.60
2024-04-25T22:46:40.958Z,46.77
2024-04-25T22:51:43.543Z,33.20
2024-04-25T22:56:46.268Z,35.13
2024-04-25T23:01:48.928Z,31.77
2024-04-25T23:06:51.489Z,31.07
2024-04-25T23:11:54.679Z,22.27
2024-04-25T23:16:57.260Z,29.87
2024-04-25T23:21:59.854Z,22.57
2024-04-25T23:27:02.898Z,7.83
2024-04-25T23:32:05.642Z,26.67
2024-04-25T23:37:08.246Z,12.73
2024-04-25T23:42:11.442Z,13.70
2024-04-25T23:47:15.056Z,24.17
2024-04-25T23:52:18.088Z,22.90
2024-04-25T23:57:20.677Z,22.73
